createdAt,value
2022-10-26T00:02:03.506Z,2.92
2022-10-26T00:04:33.304Z,3.10
2022-10-26T00:07:05.670Z,3.25
2022-10-26T00:09:35.453Z,2.92
2022-10-26T00:12:05.502Z,3.25
2022-10-26T00:14:35.313Z,2.92
2022-10-26T00:17:05.083Z,3.33
2022-10-26T00:19:38.152Z,3.67
2022-10-26T00:22:10.539Z,3.50
2022-10-26T00:24:40.305Z,3.10
2022-10-26T00:27:10.025Z,3.40
2022-10-26T00:29:39.758Z,4.00
2022-10-26T00:32:09.488Z,3.83
2022-10-26T00:34:39.564Z,3.20
2022-10-26T00:37:12.313Z,4.28
2022-10-26T00:39:42.035Z,3.67
2022-10-26T00:42:15.168Z,3.75
2022-10-26T00:45:01.852Z,4.53
2022-10-26T00:47:38.561Z,4.53
2022-10-26T00:50:13.220Z,4.45
2022-10-26T00:52:45.845Z,5.15
2022-10-26T00:55:15.646Z,4.80
2022-10-26T00:57:45.597Z,5.88
2022-10-26T01:00:15.937Z,5.80
2022-10-26T01:02:48.683Z,5.95
2022-10-26T01:05:20.786Z,5.55
2022-10-26T01:07:54.565Z,5.43
2022-10-26T01:10:25.157Z,5.30
2022-10-26T01:12:55.935Z,5.22
2022-10-26T01:15:31.787Z,5.10
2022-10-26T01:18:10.075Z,4.45
2022-10-26T01:21:03.535Z,4.38
2022-10-26T01:23:48.786Z,5.75
2022-10-26T01:26:40.385Z,5.68
2022-10-26T01:29:46.240Z,5.22
2022-10-26T01:32:25.772Z,5.53
2022-10-26T01:35:03.020Z,5.32
2022-10-26T01:37:38.653Z,5.50
2022-10-26T01:40:13.541Z,5.60
2022-10-26T01:42:47.708Z,4.90
2022-10-26T01:45:18.550Z,5.38
2022-10-26T01:47:52.354Z,5.07
2022-10-26T01:50:23.284Z,4.82
2022-10-26T01:52:53.202Z,5.18
2022-10-26T01:55:43.312Z,5.80
2022-10-26T01:58:26.435Z,5.35
2022-10-26T02:01:07.323Z,5.68
2022-10-26T02:03:46.153Z,5.00
2022-10-26T02:06:22.902Z,5.15
2022-10-26T02:09:09.786Z,5.03
2022-10-26T02:11:42.893Z,5.25
2022-10-26T02:14:21.112Z,5.80
2022-10-26T02:16:58.158Z,5.15
2022-10-26T02:19:36.772Z,6.18
2022-10-26T02:22:15.629Z,5.40
2022-10-26T02:24:46.420Z,5.55
2022-10-26T02:27:21.284Z,5.45
2022-10-26T02:29:53.922Z,5.20
2022-10-26T02:32:26.267Z,5.53
2022-10-26T02:35:02.323Z,5.47
2022-10-26T02:37:34.899Z,5.30
2022-10-26T02:40:08.969Z,4.88
2022-10-26T02:42:40.162Z,5.30
2022-10-26T02:45:14.875Z,5.45
2022-10-26T02:47:44.786Z,5.90
2022-10-26T02:50:18.546Z,5.78
2022-10-26T02:52:52.940Z,6.75
2022-10-26T02:57:58.635Z,6.07
2022-10-26T03:00:28.783Z,6.22
2022-10-26T03:03:02.890Z,5.28
2022-10-26T03:05:36.833Z,5.72
2022-10-26T03:08:07.265Z,5.93
2022-10-26T03:10:39.945Z,5.80
2022-10-26T03:13:09.694Z,5.85
2022-10-26T03:15:39.562Z,5.60
2022-10-26T03:18:11.765Z,5.40
2022-10-26T03:20:46.843Z,6.53
2022-10-26T03:23:16.609Z,5.68
2022-10-26T03:25:46.413Z,5.40
2022-10-26T03:28:16.179Z,5.57
2022-10-26T03:30:45.965Z,5.38
2022-10-26T03:33:16.092Z,6.30
2022-10-26T03:35:48.925Z,5.30
2022-10-26T03:38:18.667Z,5.47
2022-10-26T03:40:48.527Z,6.45
2022-10-26T03:43:18.298Z,6.13
2022-10-26T03:45:48.067Z,5.82
2022-10-26T03:48:17.847Z,6.15
2022-10-26T03:50:50.168Z,6.20
2022-10-26T03:53:19.907Z,6.10
2022-10-26T03:55:49.697Z,6.50
2022-10-26T03:58:19.512Z,5.57
2022-10-26T04:00:50.274Z,6.03
2022-10-26T04:03:20.027Z,5.57
2022-10-26T04:05:52.365Z,5.80
2022-10-26T04:08:22.155Z,5.22
2022-10-26T04:10:52.046Z,5.28
2022-10-26T04:13:21.818Z,5.45
2022-10-26T04:15:51.748Z,4.70
2022-10-26T04:18:21.533Z,5.25
2022-10-26T04:20:53.871Z,5.28
2022-10-26T04:26:13.419Z,5.47
2022-10-26T04:28:43.149Z,5.28
2022-10-26T04:31:12.881Z,5.32
2022-10-26T04:33:42.627Z,4.78
2022-10-26T04:36:15.213Z,4.90
2022-10-26T04:38:44.970Z,4.82
2022-10-26T04:41:14.711Z,6.07
2022-10-26T04:43:44.421Z,5.50
2022-10-26T04:46:16.757Z,4.60
2022-10-26T04:48:46.901Z,5.43
2022-10-26T04:51:19.528Z,5.50
2022-10-26T04:53:49.312Z,5.45
2022-10-26T04:56:19.075Z,4.78
2022-10-26T04:58:48.819Z,4.47
2022-10-26T05:01:18.680Z,4.25
2022-10-26T05:03:52.992Z,4.05
2022-10-26T05:06:25.594Z,4.10
2022-10-26T05:08:55.371Z,4.70
2022-10-26T05:11:25.112Z,4.30
2022-10-26T05:13:54.847Z,4.40
2022-10-26T05:16:24.666Z,4.50
2022-10-26T05:18:54.502Z,4.72
2022-10-26T05:21:26.846Z,5.05
2022-10-26T05:23:56.576Z,4.80
2022-10-26T05:26:27.430Z,4.93
2022-10-26T05:28:57.367Z,4.93
2022-10-26T05:31:27.182Z,4.90
2022-10-26T05:33:56.998Z,6.88
2022-10-26T05:36:29.545Z,4.90
2022-10-26T05:39:00.951Z,5.13
2022-10-26T05:41:30.665Z,5.45
2022-10-26T05:44:00.585Z,5.63
2022-10-26T05:46:30.383Z,4.72
2022-10-26T05:49:00.224Z,4.85
2022-10-26T05:51:32.653Z,4.60
2022-10-26T05:54:02.645Z,5.15
2022-10-26T05:56:38.301Z,5.20
2022-10-26T05:59:13.561Z,4.38
2022-10-26T06:01:56.044Z,4.55
2022-10-26T06:04:38.896Z,4.35
2022-10-26T06:07:17.523Z,5.05
2022-10-26T06:09:48.611Z,5.32
2022-10-26T06:12:20.034Z,4.45
2022-10-26T06:14:51.010Z,4.38
2022-10-26T06:17:34.368Z,3.97
2022-10-26T06:20:16.611Z,4.55
2022-10-26T06:23:02.266Z,4.45
2022-10-26T06:25:40.854Z,4.03
2022-10-26T06:28:22.927Z,4.10
2022-10-26T06:30:52.774Z,3.90
2022-10-26T06:33:30.945Z,4.32
2022-10-26T06:36:13.454Z,4.40
2022-10-26T06:38:48.246Z,3.53
2022-10-26T06:41:19.298Z,3.95
2022-10-26T06:43:49.725Z,4.00
2022-10-26T06:46:32.859Z,3.80
2022-10-26T06:49:09.720Z,4.10
2022-10-26T06:51:46.325Z,4.43
2022-10-26T06:54:24.773Z,4.38
2022-10-26T06:56:55.903Z,4.13
2022-10-26T06:59:35.184Z,4.57
2022-10-26T07:02:06.614Z,4.10
2022-10-26T07:04:37.049Z,4.15
2022-10-26T07:07:06.917Z,4.22
2022-10-26T07:09:39.244Z,4.30
2022-10-26T07:12:09.430Z,5.38
2022-10-26T07:14:39.142Z,5.22
2022-10-26T07:17:09.096Z,4.97
2022-10-26T07:19:40.842Z,4.50
2022-10-26T07:22:10.730Z,4.53
2022-10-26T07:24:43.118Z,5.00
2022-10-26T07:27:12.880Z,4.68
2022-10-26T07:29:42.608Z,4.72
2022-10-26T07:32:12.389Z,4.63
2022-10-26T07:34:42.151Z,4.72
2022-10-26T07:37:11.932Z,4.90
2022-10-26T07:39:44.404Z,5.85
2022-10-26T07:42:14.217Z,5.50
2022-10-26T07:44:43.991Z,4.95
2022-10-26T07:47:13.750Z,4.90
2022-10-26T07:49:43.569Z,4.15
2022-10-26T07:52:13.718Z,4.57
2022-10-26T07:54:46.028Z,4.38
2022-10-26T07:57:15.774Z,4.57
2022-10-26T07:59:45.550Z,4.22
2022-10-26T08:02:15.306Z,4.20
2022-10-26T08:04:45.079Z,3.97
2022-10-26T08:07:14.805Z,3.95
2022-10-26T08:09:47.147Z,3.80
2022-10-26T08:12:17.003Z,3.35
2022-10-26T08:14:47.048Z,4.28
2022-10-26T08:17:16.786Z,4.43
2022-10-26T08:19:46.528Z,5.18
2022-10-26T08:22:16.338Z,4.00
2022-10-26T08:24:48.705Z,3.90
2022-10-26T08:27:18.913Z,4.20
2022-10-26T08:29:48.727Z,4.38
2022-10-26T08:32:18.531Z,3.75
2022-10-26T08:34:48.263Z,3.80
2022-10-26T08:37:17.965Z,3.60
2022-10-26T08:39:53.586Z,3.90
2022-10-26T08:42:31.125Z,3.63
2022-10-26T08:45:04.111Z,3.28
2022-10-26T08:47:39.946Z,3.20
2022-10-26T08:50:14.466Z,3.63
2022-10-26T08:52:49.405Z,3.70
2022-10-26T08:55:28.158Z,4.47
2022-10-26T08:57:58.859Z,4.32
2022-10-26T09:00:29.894Z,4.07
2022-10-26T09:02:59.701Z,3.80
2022-10-26T09:05:37.450Z,4.35
2022-10-26T09:08:15.441Z,3.08
2022-10-26T09:10:59.968Z,3.13
2022-10-26T09:13:38.705Z,6.30
2022-10-26T09:16:14.714Z,3.03
2022-10-26T09:18:57.704Z,3.08
2022-10-26T09:21:40.545Z,2.97
2022-10-26T09:24:16.928Z,2.55
2022-10-26T09:26:57.160Z,2.95
2022-10-26T09:29:30.410Z,2.67
2022-10-26T09:32:03.763Z,2.85
2022-10-26T09:34:41.918Z,3.03
2022-10-26T09:37:18.329Z,2.88
2022-10-26T09:39:58.201Z,5.45
2022-10-26T09:42:39.011Z,2.13
2022-10-26T09:45:16.105Z,2.75
2022-10-26T09:47:52.830Z,2.92
2022-10-26T09:50:26.965Z,2.65
2022-10-26T09:52:56.911Z,2.92
2022-10-26T09:55:27.595Z,3.28
2022-10-26T09:58:04.212Z,2.25
2022-10-26T10:03:29.446Z,2.58
2022-10-26T10:06:18.532Z,2.80
2022-10-26T10:09:11.059Z,2.72
2022-10-26T10:11:42.227Z,3.00
2022-10-26T10:14:19.122Z,2.38
2022-10-26T10:16:58.144Z,2.63
2022-10-26T10:19:29.728Z,2.17
2022-10-26T10:22:01.931Z,2.70
2022-10-26T10:24:33.210Z,6.85
2022-10-26T10:27:05.071Z,2.90
2022-10-26T10:29:43.759Z,2.60
2022-10-26T10:32:20.761Z,2.70
2022-10-26T10:34:50.953Z,2.58
2022-10-26T10:37:29.409Z,2.72
2022-10-26T10:40:01.129Z,2.20
2022-10-26T10:42:34.634Z,2.67
2022-10-26T10:45:08.296Z,2.40
2022-10-26T10:47:39.612Z,2.10
2022-10-26T10:50:18.449Z,2.75
2022-10-26T10:52:49.305Z,2.20
2022-10-26T10:55:23.955Z,2.58
2022-10-26T10:58:08.437Z,2.20
2022-10-26T11:00:42.614Z,2.15
2022-10-26T11:03:43.219Z,2.55
2022-10-26T11:06:19.792Z,2.13
2022-10-26T11:08:53.158Z,2.58
2022-10-26T11:11:27.262Z,2.97
2022-10-26T11:14:02.764Z,2.55
2022-10-26T11:16:40.755Z,2.83
2022-10-26T11:19:21.058Z,3.40
2022-10-26T11:21:54.265Z,2.53
2022-10-26T11:24:28.611Z,2.53
2022-10-26T11:29:40.964Z,2.33
2022-10-26T11:32:19.613Z,2.40
2022-10-26T11:34:56.655Z,2.28
2022-10-26T11:37:32.474Z,2.40
2022-10-26T11:40:07.916Z,2.22
2022-10-26T11:42:44.126Z,1.92
2022-10-26T11:45:22.521Z,2.13
2022-10-26T11:47:58.027Z,2.00
2022-10-26T11:50:32.313Z,2.00
2022-10-26T11:55:34.433Z,1.40
2022-10-26T11:58:05.587Z,2.00
2022-10-26T12:00:45.519Z,1.60
2022-10-26T12:03:22.468Z,1.33
2022-10-26T12:05:54.180Z,1.90
2022-10-26T12:08:27.659Z,1.65
2022-10-26T12:14:00.030Z,1.92
2022-10-26T12:16:51.018Z,1.50
2022-10-26T12:19:28.923Z,1.40
2022-10-26T12:22:01.233Z,1.83
2022-10-26T12:24:35.246Z,1.92
2022-10-26T12:27:07.620Z,1.30
2022-10-26T12:29:49.426Z,1.90
2022-10-26T12:32:52.548Z,1.63
2022-10-26T12:35:43.644Z,1.65
2022-10-26T12:38:50.322Z,1.35
2022-10-26T12:41:28.545Z,1.70
2022-10-26T12:44:02.763Z,1.77
2022-10-26T12:46:45.031Z,1.90
2022-10-26T12:49:57.794Z,1.92
2022-10-26T12:52:52.052Z,1.73
2022-10-26T12:56:06.988Z,2.13
2022-10-26T12:59:03.601Z,1.63
2022-10-26T13:05:20.589Z,2.30
2022-10-26T13:07:53.501Z,2.33
2022-10-26T13:10:25.820Z,2.25
2022-10-26T13:13:00.091Z,1.75
2022-10-26T13:15:32.259Z,1.25
2022-10-26T13:18:05.276Z,1.80
2022-10-26T13:20:36.506Z,1.80
2022-10-26T13:23:22.277Z,1.70
2022-10-26T13:26:06.372Z,1.60
2022-10-26T13:28:47.229Z,1.73
2022-10-26T13:31:55.305Z,2.13
2022-10-26T13:34:27.265Z,1.67
2022-10-26T13:37:07.823Z,2.60
2022-10-26T13:39:44.041Z,1.63
2022-10-26T13:42:18.844Z,1.83
2022-10-26T13:44:55.206Z,1.60
2022-10-26T13:47:30.343Z,1.70
2022-10-26T13:50:04.621Z,1.80
2022-10-26T13:55:15.959Z,2.22
2022-10-26T13:57:47.586Z,1.58
2022-10-26T14:00:21.850Z,1.70
2022-10-26T14:05:22.341Z,1.88
2022-10-26T14:07:57.157Z,2.10
2022-10-26T14:10:32.980Z,2.10
2022-10-26T14:13:03.734Z,1.98
2022-10-26T14:15:35.290Z,2.30
2022-10-26T14:18:06.573Z,1.92
2022-10-26T14:20:36.333Z,2.05
2022-10-26T14:23:06.054Z,2.10
2022-10-26T14:25:42.680Z,1.85
2022-10-26T14:28:26.401Z,2.33
2022-10-26T14:30:57.217Z,1.98
2022-10-26T14:33:31.158Z,2.15
2022-10-26T14:36:01.147Z,1.98
2022-10-26T14:38:34.729Z,1.98
2022-10-26T14:41:07.434Z,1.65
2022-10-26T14:43:37.491Z,2.30
2022-10-26T14:46:07.506Z,1.75
2022-10-26T14:48:38.830Z,1.73
2022-10-26T14:51:13.387Z,2.60
2022-10-26T14:53:50.087Z,1.92
2022-10-26T14:56:33.511Z,1.92
2022-10-26T14:59:13.623Z,1.67
2022-10-26T15:01:52.587Z,2.08
2022-10-26T15:04:32.287Z,1.85
2022-10-26T15:07:10.837Z,2.33
2022-10-26T15:09:46.437Z,2.10
2022-10-26T15:12:40.412Z,2.33
2022-10-26T15:15:23.928Z,2.00
2022-10-26T15:17:56.200Z,1.73
2022-10-26T15:20:27.672Z,2.00
2022-10-26T15:22:58.787Z,2.25
2022-10-26T15:25:33.209Z,2.38
2022-10-26T15:31:02.135Z,1.83
2022-10-26T15:33:32.500Z,2.13
2022-10-26T15:36:17.027Z,1.65
2022-10-26T15:41:21.536Z,1.90
2022-10-26T15:43:56.632Z,1.92
2022-10-26T15:46:27.010Z,1.75
2022-10-26T15:48:59.033Z,2.60
2022-10-26T15:51:29.994Z,2.53
2022-10-26T15:54:00.413Z,2.63
2022-10-26T15:56:30.259Z,2.30
2022-10-26T15:59:02.639Z,2.60
2022-10-26T16:01:32.475Z,2.88
2022-10-26T16:04:02.343Z,2.70
2022-10-26T16:06:33.885Z,2.30
2022-10-26T16:09:06.021Z,2.67
2022-10-26T16:11:36.102Z,3.25
2022-10-26T16:14:08.542Z,3.15
2022-10-26T16:16:38.951Z,3.03
2022-10-26T16:19:29.956Z,3.28
2022-10-26T16:24:57.624Z,3.65
2022-10-26T16:27:27.395Z,3.10
2022-10-26T16:29:59.731Z,4.07
2022-10-26T16:32:29.435Z,3.65
2022-10-26T16:34:59.198Z,3.78
2022-10-26T16:37:31.385Z,4.43
2022-10-26T16:40:01.272Z,3.60
2022-10-26T16:42:33.164Z,3.50
2022-10-26T16:45:06.272Z,4.00
2022-10-26T16:47:39.766Z,3.47
2022-10-26T16:50:11.205Z,4.47
2022-10-26T16:52:41.439Z,4.00
2022-10-26T16:55:12.272Z,3.90
2022-10-26T16:57:42.041Z,4.10
2022-10-26T17:00:15.169Z,3.78
2022-10-26T17:02:44.971Z,4.25
2022-10-26T17:05:14.833Z,4.63
2022-10-26T17:07:44.568Z,5.45
2022-10-26T17:10:14.295Z,4.88
2022-10-26T17:12:44.007Z,5.28
2022-10-26T17:15:19.773Z,5.05
2022-10-26T17:17:52.313Z,4.35
2022-10-26T17:20:22.330Z,4.00
2022-10-26T17:22:52.240Z,4.85
2022-10-26T17:25:22.227Z,5.05
2022-10-26T17:27:51.992Z,4.97
2022-10-26T17:30:24.346Z,5.18
2022-10-26T17:32:54.094Z,5.00
2022-10-26T17:35:23.951Z,5.72
2022-10-26T17:37:53.874Z,4.38
2022-10-26T17:40:23.793Z,4.90
2022-10-26T17:42:53.511Z,4.43
2022-10-26T17:45:25.805Z,5.13
2022-10-26T17:47:55.766Z,5.18
2022-10-26T17:50:25.493Z,5.57
2022-10-26T17:52:55.230Z,5.43
2022-10-26T17:55:25.015Z,5.38
2022-10-26T17:57:54.768Z,5.85
2022-10-26T18:00:27.734Z,5.28
2022-10-26T18:05:51.733Z,5.78
2022-10-26T18:10:51.821Z,5.60
2022-10-26T18:13:22.169Z,5.85
2022-10-26T18:15:54.456Z,9.00
2022-10-26T18:18:24.233Z,10.32
2022-10-26T18:20:53.940Z,11.88
2022-10-26T18:23:23.779Z,10.90
2022-10-26T18:26:05.857Z,7.90
2022-10-26T18:28:38.403Z,7.82
2022-10-26T18:31:12.560Z,7.30
2022-10-26T18:33:42.400Z,7.22
2022-10-26T18:36:14.572Z,8.05
2022-10-26T18:38:45.080Z,7.28
2022-10-26T18:41:16.327Z,7.22
2022-10-26T18:43:49.311Z,7.47
2022-10-26T18:46:24.634Z,7.90
2022-10-26T18:48:55.165Z,8.10
2022-10-26T18:51:28.720Z,8.10
2022-10-26T18:53:59.936Z,8.23
2022-10-26T18:56:29.758Z,9.07
2022-10-26T18:59:01.998Z,10.63
2022-10-26T19:01:36.737Z,12.70
2022-10-26T19:04:08.178Z,11.32
2022-10-26T19:06:39.802Z,8.55
2022-10-26T19:09:10.889Z,8.30
2022-10-26T19:11:42.272Z,7.72
2022-10-26T19:14:13.698Z,7.90
2022-10-26T19:16:47.557Z,8.35
2022-10-26T19:19:18.169Z,9.45
2022-10-26T19:21:48.772Z,9.10
2022-10-26T19:24:20.888Z,10.43
2022-10-26T19:26:52.004Z,9.07
2022-10-26T19:29:22.797Z,8.23
2022-10-26T19:31:55.985Z,7.57
2022-10-26T19:34:26.139Z,8.30
2022-10-26T19:36:55.878Z,7.13
2022-10-26T19:39:26.039Z,7.60
2022-10-26T19:41:55.785Z,7.35
2022-10-26T19:44:25.774Z,7.75
2022-10-26T19:46:58.147Z,6.97
2022-10-26T19:49:28.124Z,7.68
2022-10-26T19:51:58.023Z,7.60
2022-10-26T19:54:27.761Z,7.38
2022-10-26T19:56:57.461Z,7.53
2022-10-26T19:59:27.226Z,6.80
2022-10-26T20:02:00.429Z,7.50
2022-10-26T20:04:30.160Z,7.53
2022-10-26T20:06:59.899Z,7.40
2022-10-26T20:09:29.614Z,7.13
2022-10-26T20:11:59.334Z,7.70
2022-10-26T20:14:29.071Z,7.93
2022-10-26T20:17:01.368Z,6.97
2022-10-26T20:19:31.074Z,7.00
2022-10-26T20:22:00.894Z,7.35
2022-10-26T20:24:30.775Z,6.68
2022-10-26T20:27:00.557Z,7.25
2022-10-26T20:29:30.288Z,7.63
2022-10-26T20:32:02.590Z,7.63
2022-10-26T20:34:32.310Z,8.13
2022-10-26T20:37:02.033Z,7.30
2022-10-26T20:39:32.408Z,7.88
2022-10-26T20:42:02.816Z,7.38
2022-10-26T20:44:37.081Z,7.50
2022-10-26T20:47:11.676Z,7.82
2022-10-26T20:49:42.247Z,8.25
2022-10-26T20:52:21.229Z,8.20
2022-10-26T20:54:56.818Z,8.90
2022-10-26T20:57:32.252Z,9.88
2022-10-26T21:00:09.084Z,9.25
2022-10-26T21:02:41.436Z,8.20
2022-10-26T21:05:11.534Z,8.20
2022-10-26T21:07:41.251Z,7.65
2022-10-26T21:10:11.483Z,8.98
2022-10-26T21:12:41.205Z,8.52
2022-10-26T21:15:12.249Z,8.38
2022-10-26T21:17:44.697Z,9.02
2022-10-26T21:20:14.745Z,8.13
2022-10-26T21:22:44.495Z,8.07
2022-10-26T21:25:14.255Z,8.27
2022-10-26T21:27:44.003Z,7.40
2022-10-26T21:30:14.974Z,8.13
2022-10-26T21:32:47.332Z,9.07
2022-10-26T21:35:17.230Z,8.50
2022-10-26T21:37:47.060Z,8.10
2022-10-26T21:40:17.591Z,7.53
2022-10-26T21:42:52.635Z,8.45
2022-10-26T21:45:22.709Z,8.32
2022-10-26T21:47:56.399Z,8.30
2022-10-26T21:50:26.282Z,8.02
2022-10-26T21:52:56.227Z,8.77
2022-10-26T21:55:25.942Z,8.40
2022-10-26T21:57:56.083Z,8.50
2022-10-26T22:00:26.655Z,8.52
2022-10-26T22:02:58.928Z,9.18
2022-10-26T22:05:29.644Z,8.77
2022-10-26T22:07:59.494Z,9.70
2022-10-26T22:10:29.440Z,8.80
2022-10-26T22:13:00.962Z,8.05
2022-10-26T22:15:30.717Z,8.50
2022-10-26T22:18:03.053Z,8.90
2022-10-26T22:20:32.815Z,8.02
2022-10-26T22:25:35.164Z,7.95
2022-10-26T22:28:04.910Z,8.35
2022-10-26T22:30:34.649Z,9.10
2022-10-26T22:33:06.950Z,8.77
2022-10-26T22:35:36.686Z,10.05
2022-10-26T22:38:06.391Z,9.85
2022-10-26T22:40:36.123Z,9.70
2022-10-26T22:43:05.878Z,8.85
2022-10-26T22:45:35.604Z,8.65
2022-10-26T22:50:58.414Z,8.45
2022-10-26T22:53:28.464Z,8.70
2022-10-26T22:55:58.185Z,9.65
2022-10-26T22:58:27.969Z,9.60
2022-10-26T23:01:04.712Z,9.85
2022-10-26T23:03:37.930Z,9.73
2022-10-26T23:06:10.326Z,9.07
2022-10-26T23:08:40.259Z,9.05
2022-10-26T23:11:12.561Z,9.85
2022-10-26T23:13:42.433Z,8.82
2022-10-26T23:16:14.072Z,9.15
2022-10-26T23:18:47.016Z,10.23
2022-10-26T23:21:17.500Z,9.35
2022-10-26T23:23:47.638Z,10.02
2022-10-26T23:26:21.362Z,9.20
2022-10-26T23:28:52.781Z,9.43
2022-10-26T23:31:25.492Z,9.50
2022-10-26T23:33:59.077Z,9.40
2022-10-26T23:36:28.890Z,10.38
2022-10-26T23:38:58.611Z,9.57
2022-10-26T23:41:28.945Z,10.18
2022-10-26T23:43:58.653Z,9.18
2022-10-26T23:46:28.542Z,8.85
2022-10-26T23:49:00.886Z,9.10
2022-10-26T23:51:30.872Z,8.93
2022-10-26T23:54:00.561Z,8.73
2022-10-26T23:56:30.279Z,8.88
2022-10-26T23:59:01.120Z,8.18
